createdAt,value
2019-05-18T00:01:09.711Z,13.80
2019-05-18T00:03:31.345Z,13.80
2019-05-18T00:05:52.679Z,13.90
2019-05-18T00:08:13.964Z,14.00
2019-05-18T00:10:35.170Z,13.90
2019-05-18T00:12:56.367Z,13.90
2019-05-18T00:15:17.597Z,13.90
2019-05-18T00:17:38.923Z,13.90
2019-05-18T00:20:00.118Z,13.90
2019-05-18T00:22:21.305Z,13.90
2019-05-18T00:24:42.542Z,13.80
2019-05-18T00:27:04.147Z,13.80
2019-05-18T00:29:27.278Z,13.70
2019-05-18T00:31:48.481Z,13.70
2019-05-18T00:34:09.685Z,13.70
2019-05-18T00:36:30.898Z,13.70
2019-05-18T00:38:52.208Z,13.70
2019-05-18T00:41:14.412Z,13.60
2019-05-18T00:43:35.588Z,13.60
2019-05-18T00:45:58.031Z,13.60
2019-05-18T00:48:19.231Z,13.50
2019-05-18T00:50:40.440Z,13.50
2019-05-18T00:53:21.497Z,13.50
2019-05-18T00:55:42.785Z,13.50
2019-05-18T00:58:05.183Z,13.40
2019-05-18T01:00:26.385Z,13.40
2019-05-18T01:02:47.579Z,13.30
2019-05-18T01:05:09.142Z,13.30
2019-05-18T01:07:30.342Z,13.30
2019-05-18T01:09:51.821Z,13.30
2019-05-18T01:12:13.113Z,13.30
2019-05-18T01:14:34.416Z,13.20
2019-05-18T01:16:55.721Z,13.20
2019-05-18T01:19:18.227Z,13.20
2019-05-18T01:21:39.457Z,13.20
2019-05-18T01:24:00.682Z,13.20
2019-05-18T01:26:21.904Z,13.10
2019-05-18T01:28:43.110Z,13.10
2019-05-18T01:31:04.431Z,13.00
2019-05-18T01:33:25.630Z,13.00
2019-05-18T01:35:46.951Z,13.00
2019-05-18T01:38:08.158Z,12.90
2019-05-18T01:40:29.394Z,12.90
2019-05-18T01:42:50.692Z,12.80
2019-05-18T01:45:17.491Z,12.80
2019-05-18T01:47:36.309Z,12.80
2019-05-18T01:49:57.509Z,12.80
2019-05-18T01:52:18.762Z,12.70
2019-05-18T01:54:40.418Z,12.70
2019-05-18T01:57:01.855Z,12.60
2019-05-18T01:59:23.123Z,12.60
2019-05-18T02:01:44.610Z,12.60
2019-05-18T02:04:07.106Z,12.60
2019-05-18T02:06:28.403Z,12.60
2019-05-18T02:08:49.605Z,12.50
2019-05-18T02:11:11.077Z,12.50
2019-05-18T02:13:32.526Z,12.50
2019-05-18T02:15:53.749Z,12.40
2019-05-18T02:18:28.337Z,12.40
2019-05-18T02:20:38.061Z,12.40
2019-05-18T02:22:59.270Z,12.40
2019-05-18T02:25:20.506Z,12.30
2019-05-18T02:27:41.764Z,12.30
2019-05-18T02:30:06.723Z,12.30
2019-05-18T02:32:27.939Z,12.30
2019-05-18T02:34:49.154Z,12.20
2019-05-18T02:37:10.454Z,12.20
2019-05-18T02:39:31.652Z,12.20
2019-05-18T02:41:52.861Z,12.10
2019-05-18T02:44:14.313Z,12.10
2019-05-18T02:46:35.637Z,12.10
2019-05-18T02:48:56.864Z,12.10
2019-05-18T02:51:18.074Z,12.10
2019-05-18T02:53:39.305Z,12.00
2019-05-18T02:56:00.614Z,12.00
2019-05-18T02:58:21.840Z,11.90
2019-05-18T03:00:43.037Z,11.90
2019-05-18T03:03:04.259Z,11.90
2019-05-18T03:05:25.665Z,11.80
2019-05-18T03:07:47.082Z,11.90
2019-05-18T03:10:09.871Z,11.80
2019-05-18T03:12:32.348Z,11.80
2019-05-18T03:14:53.841Z,11.80
2019-05-18T03:17:15.065Z,11.80
2019-05-18T03:19:36.265Z,11.80
2019-05-18T03:22:00.820Z,11.80
2019-05-18T03:24:20.619Z,11.80
2019-05-18T03:26:41.836Z,11.80
2019-05-18T03:29:03.159Z,11.90
2019-05-18T03:31:24.491Z,11.80
2019-05-18T03:33:45.735Z,11.90
2019-05-18T03:36:07.218Z,11.80
2019-05-18T03:38:28.510Z,11.80
2019-05-18T03:40:49.721Z,11.80
2019-05-18T03:43:10.942Z,11.90
2019-05-18T03:45:32.382Z,11.90
2019-05-18T03:47:53.608Z,11.90
2019-05-18T03:50:14.998Z,12.00
2019-05-18T03:52:36.213Z,12.00
2019-05-18T03:54:57.411Z,12.10
2019-05-18T03:57:18.632Z,12.10
2019-05-18T03:59:39.818Z,12.10
2019-05-18T04:02:01.048Z,12.10
2019-05-18T04:04:22.245Z,12.20
2019-05-18T04:06:43.682Z,12.10
2019-05-18T04:09:05.099Z,12.20
2019-05-18T04:11:26.309Z,12.20
2019-05-18T04:13:47.508Z,12.20
2019-05-18T04:16:08.893Z,12.20
2019-05-18T04:18:30.255Z,12.30
2019-05-18T04:20:51.549Z,12.30
2019-05-18T04:23:12.767Z,12.30
2019-05-18T04:25:34.143Z,12.30
2019-05-18T04:27:55.367Z,12.40
2019-05-18T04:30:16.898Z,12.40
2019-05-18T04:32:38.104Z,12.40
2019-05-18T04:35:00.596Z,12.40
2019-05-18T04:37:21.790Z,12.50
2019-05-18T04:39:43.240Z,12.50
2019-05-18T04:42:04.446Z,12.50
2019-05-18T04:44:25.662Z,12.60
2019-05-18T04:46:46.884Z,12.60
2019-05-18T04:49:08.228Z,12.60
2019-05-18T04:51:29.444Z,12.70
2019-05-18T04:53:50.646Z,12.70
2019-05-18T04:56:11.865Z,12.80
2019-05-18T04:58:33.161Z,12.80
2019-05-18T05:00:54.349Z,12.80
2019-05-18T05:03:15.913Z,12.80
2019-05-18T05:05:37.117Z,12.90
2019-05-18T05:07:58.374Z,12.90
2019-05-18T05:10:19.852Z,13.00
2019-05-18T05:12:41.163Z,13.00
2019-05-18T05:15:03.872Z,13.00
2019-05-18T05:17:25.218Z,13.10
2019-05-18T05:19:46.472Z,13.20
2019-05-18T05:22:07.695Z,13.20
2019-05-18T05:24:30.118Z,13.20
2019-05-18T05:26:51.313Z,13.20
2019-05-18T05:29:12.536Z,13.30
2019-05-18T05:31:33.737Z,13.30
2019-05-18T05:33:58.052Z,13.40
2019-05-18T05:36:19.370Z,13.50
2019-05-18T05:38:53.812Z,13.50
2019-05-18T05:41:16.681Z,13.40
2019-05-18T05:43:38.382Z,13.60
2019-05-18T05:46:01.075Z,13.70
2019-05-18T05:48:22.415Z,13.70
2019-05-18T05:50:43.620Z,13.70
2019-05-18T05:53:04.925Z,13.80
2019-05-18T05:55:26.123Z,13.80
2019-05-18T05:57:47.316Z,13.80
2019-05-18T06:00:09.529Z,13.90
2019-05-18T06:02:30.728Z,14.00
2019-05-18T06:04:51.930Z,14.10
2019-05-18T06:07:13.133Z,14.10
2019-05-18T06:09:35.864Z,14.10
2019-05-18T06:11:57.069Z,14.30
2019-05-18T06:14:18.277Z,14.30
2019-05-18T06:16:39.905Z,14.40
2019-05-18T06:19:01.149Z,14.40
2019-05-18T06:21:22.369Z,14.40
2019-05-18T06:23:43.581Z,14.40
2019-05-18T06:26:04.781Z,14.50
2019-05-18T06:28:25.988Z,14.60
2019-05-18T06:30:47.441Z,14.70
2019-05-18T06:33:08.642Z,14.90
2019-05-18T06:35:29.832Z,15.20
2019-05-18T06:37:51.116Z,15.30
2019-05-18T06:40:12.542Z,15.50
2019-05-18T06:42:33.723Z,15.60
2019-05-18T06:44:54.930Z,15.70
2019-05-18T06:47:16.564Z,16.00
2019-05-18T06:49:37.797Z,16.10
2019-05-18T06:51:59.093Z,16.50
2019-05-18T06:54:20.333Z,16.60
2019-05-18T06:56:42.033Z,16.70
2019-05-18T06:59:03.221Z,16.90
2019-05-18T07:01:44.351Z,17.50
2019-05-18T07:04:05.618Z,18.00
2019-05-18T07:06:26.850Z,18.30
2019-05-18T07:08:48.038Z,18.80
2019-05-18T07:11:09.489Z,18.90
2019-05-18T07:13:31.019Z,19.30
2019-05-18T07:15:52.249Z,19.10
2019-05-18T07:18:13.636Z,19.00
2019-05-18T07:20:34.869Z,19.10
2019-05-18T07:22:56.166Z,19.80
2019-05-18T07:25:18.785Z,19.60
2019-05-18T07:27:39.977Z,18.70
2019-05-18T07:30:02.223Z,19.00
2019-05-18T07:32:23.418Z,19.30
2019-05-18T07:34:44.691Z,19.60
2019-05-18T07:37:05.917Z,19.70
2019-05-18T07:39:27.119Z,19.50
2019-05-18T07:41:48.597Z,20.00
2019-05-18T07:44:09.796Z,19.90
2019-05-18T07:46:31.010Z,19.80
2019-05-18T07:48:52.577Z,20.10
2019-05-18T07:51:13.772Z,20.50
2019-05-18T07:53:35.205Z,20.60
2019-05-18T07:55:56.522Z,20.40
2019-05-18T07:58:17.848Z,20.50
2019-05-18T08:00:39.254Z,20.50
2019-05-18T08:03:01.005Z,20.60
2019-05-18T08:05:22.207Z,19.90
2019-05-18T08:07:43.532Z,19.90
2019-05-18T08:10:06.943Z,19.80
2019-05-18T08:12:28.151Z,19.80
2019-05-18T08:14:49.356Z,19.80
2019-05-18T08:17:10.571Z,20.00
2019-05-18T08:19:31.796Z,20.00
2019-05-18T08:21:53.777Z,20.10
2019-05-18T08:24:15.440Z,19.90
2019-05-18T08:26:36.797Z,20.20
2019-05-18T08:28:58.766Z,19.80
2019-05-18T08:31:22.628Z,20.00
2019-05-18T08:33:45.772Z,20.00
2019-05-18T08:36:06.976Z,20.50
2019-05-18T08:38:30.066Z,20.60
2019-05-18T08:40:52.648Z,19.80
2019-05-18T08:43:15.998Z,19.50
2019-05-18T08:45:37.301Z,19.60
2019-05-18T08:47:58.705Z,19.70
2019-05-18T08:50:20.057Z,20.40
2019-05-18T08:52:41.345Z,20.90
2019-05-18T08:55:06.981Z,19.90
2019-05-18T08:57:31.284Z,20.00
2019-05-18T08:59:54.451Z,20.20
2019-05-18T09:02:15.785Z,20.60
2019-05-18T09:04:37.114Z,20.80
2019-05-18T09:07:00.300Z,20.60
2019-05-18T09:09:21.596Z,20.90
2019-05-18T09:11:42.834Z,20.20
2019-05-18T09:14:04.046Z,20.80
2019-05-18T09:16:26.674Z,20.50
2019-05-18T09:18:47.997Z,20.60
2019-05-18T09:21:09.269Z,20.60
2019-05-18T09:23:30.490Z,20.80
2019-05-18T09:25:51.691Z,21.20
2019-05-18T09:28:12.890Z,21.00
2019-05-18T09:30:34.109Z,21.50
2019-05-18T09:32:55.364Z,21.30
2019-05-18T09:35:16.869Z,21.30
2019-05-18T09:37:38.083Z,21.70
2019-05-18T09:39:59.276Z,21.50
2019-05-18T09:42:20.529Z,21.20
2019-05-18T09:44:41.748Z,21.80
2019-05-18T09:47:03.092Z,22.20
2019-05-18T09:49:24.784Z,22.20
2019-05-18T09:51:46.000Z,21.70
2019-05-18T09:54:07.356Z,21.30
2019-05-18T09:56:29.873Z,21.80
2019-05-18T09:59:11.220Z,21.50
2019-05-18T10:01:32.582Z,21.70
2019-05-18T10:03:54.850Z,21.70
2019-05-18T10:06:16.292Z,21.60
2019-05-18T10:08:37.542Z,21.40
2019-05-18T10:10:58.954Z,21.80
2019-05-18T10:13:20.159Z,22.20
2019-05-18T10:15:41.386Z,22.30
2019-05-18T10:18:02.605Z,22.50
2019-05-18T10:20:23.905Z,22.10
2019-05-18T10:22:55.261Z,22.40
2019-05-18T10:25:10.524Z,22.60
2019-05-18T10:27:31.738Z,22.70
2019-05-18T10:29:52.962Z,22.60
2019-05-18T10:32:20.118Z,22.50
2019-05-18T10:34:42.405Z,22.30
2019-05-18T10:37:03.727Z,22.90
2019-05-18T10:39:24.965Z,22.90
2019-05-18T10:41:46.205Z,22.80
2019-05-18T10:44:08.629Z,23.20
2019-05-18T10:46:29.904Z,23.60
2019-05-18T10:48:51.492Z,23.60
2019-05-18T10:51:12.746Z,23.00
2019-05-18T10:53:35.953Z,23.30
2019-05-18T10:55:58.229Z,23.10
2019-05-18T10:58:19.524Z,23.70
2019-05-18T11:00:40.713Z,24.10
2019-05-18T11:03:02.103Z,23.90
2019-05-18T11:05:23.315Z,23.60
2019-05-18T11:07:44.516Z,23.40
2019-05-18T11:10:07.380Z,24.00
2019-05-18T11:12:28.629Z,24.30
2019-05-18T11:14:49.945Z,24.30
2019-05-18T11:17:13.157Z,23.60
2019-05-18T11:19:34.418Z,23.40
2019-05-18T11:21:55.640Z,23.50
2019-05-18T11:24:17.054Z,23.90
2019-05-18T11:26:38.536Z,24.30
2019-05-18T11:28:59.787Z,24.30
2019-05-18T11:31:21.315Z,24.00
2019-05-18T11:33:42.577Z,24.40
2019-05-18T11:36:03.875Z,24.90
2019-05-18T11:38:25.124Z,25.00
2019-05-18T11:40:46.426Z,25.10
2019-05-18T11:43:07.637Z,25.40
2019-05-18T11:45:29.358Z,25.70
2019-05-18T11:47:51.048Z,25.30
2019-05-18T11:50:13.728Z,25.20
2019-05-18T11:52:35.122Z,25.50
2019-05-18T11:54:56.406Z,25.40
2019-05-18T11:57:17.755Z,25.60
2019-05-18T11:59:39.467Z,25.90
2019-05-18T12:02:00.747Z,26.20
2019-05-18T12:04:21.952Z,26.10
2019-05-18T12:06:43.287Z,26.00
2019-05-18T12:09:04.806Z,26.30
2019-05-18T12:11:26.075Z,26.50
2019-05-18T12:13:47.280Z,26.00
2019-05-18T12:16:08.480Z,25.10
2019-05-18T12:18:29.705Z,25.00
2019-05-18T12:20:50.931Z,25.20
2019-05-18T12:23:12.346Z,25.50
2019-05-18T12:25:33.671Z,25.00
2019-05-18T12:27:55.197Z,24.80
2019-05-18T12:30:18.616Z,25.20
2019-05-18T12:32:40.033Z,25.70
2019-05-18T12:35:05.657Z,26.20
2019-05-18T12:37:46.733Z,25.70
2019-05-18T12:40:09.236Z,25.40
2019-05-18T12:42:30.799Z,25.90
2019-05-18T12:44:52.093Z,25.30
2019-05-18T12:47:14.475Z,24.90
2019-05-18T12:49:36.077Z,25.20
2019-05-18T12:51:57.599Z,25.50
2019-05-18T12:54:29.312Z,25.10
2019-05-18T12:56:42.610Z,25.80
2019-05-18T12:59:03.997Z,26.00
2019-05-18T13:01:25.326Z,26.10
2019-05-18T13:03:46.616Z,25.80
2019-05-18T13:06:07.897Z,25.80
2019-05-18T13:08:29.211Z,26.40
2019-05-18T13:10:50.569Z,26.40
2019-05-18T13:13:11.880Z,27.00
2019-05-18T13:15:33.090Z,26.70
2019-05-18T13:17:54.290Z,27.00
2019-05-18T13:20:16.814Z,27.10
2019-05-18T13:22:38.529Z,26.90
2019-05-18T13:24:59.751Z,26.50
2019-05-18T13:27:20.961Z,26.60
2019-05-18T13:29:42.186Z,26.80
2019-05-18T13:32:03.381Z,26.50
2019-05-18T13:34:24.700Z,26.90
2019-05-18T13:36:48.875Z,26.70
2019-05-18T13:39:10.209Z,26.80
2019-05-18T13:41:31.526Z,26.30
2019-05-18T13:43:52.837Z,27.00
2019-05-18T13:46:14.074Z,27.30
2019-05-18T13:48:35.331Z,27.70
2019-05-18T13:54:15.486Z,27.00
2019-05-18T13:56:39.771Z,26.60
2019-05-18T13:59:01.778Z,25.80
2019-05-18T14:01:23.127Z,26.10
2019-05-18T14:03:44.336Z,25.90
2019-05-18T14:06:05.603Z,25.90
2019-05-18T14:08:26.874Z,26.20
2019-05-18T14:10:48.082Z,26.80
2019-05-18T14:13:09.286Z,27.10
2019-05-18T14:15:30.497Z,26.60
2019-05-18T14:17:51.701Z,25.90
2019-05-18T14:20:13.566Z,26.10
2019-05-18T14:22:34.863Z,26.40
2019-05-18T14:24:56.169Z,26.90
2019-05-18T14:27:17.441Z,26.90
2019-05-18T14:29:38.662Z,26.10
2019-05-18T14:31:59.885Z,25.80
2019-05-18T14:34:21.130Z,26.10
2019-05-18T14:40:00.773Z,25.70
2019-05-18T14:42:24.447Z,25.80
2019-05-18T14:44:45.745Z,25.90
2019-05-18T14:47:06.978Z,26.10
2019-05-18T14:49:28.177Z,26.10
2019-05-18T14:51:49.474Z,25.60
2019-05-18T14:54:10.973Z,25.90
2019-05-18T14:56:32.310Z,25.90
2019-05-18T14:58:53.596Z,25.80
2019-05-18T15:01:14.834Z,25.80
2019-05-18T15:03:36.045Z,25.40
2019-05-18T15:05:57.273Z,25.40
2019-05-18T15:08:18.466Z,25.50
2019-05-18T15:10:39.720Z,25.50
2019-05-18T15:13:00.938Z,25.30
2019-05-18T15:15:22.362Z,24.90
2019-05-18T15:17:44.429Z,24.70
2019-05-18T15:20:07.238Z,24.40
2019-05-18T15:22:28.448Z,24.30
2019-05-18T15:24:50.493Z,23.70
2019-05-18T15:27:12.192Z,22.70
2019-05-18T15:29:33.421Z,21.70
2019-05-18T15:31:54.624Z,21.20
2019-05-18T15:37:09.383Z,20.70
2019-05-18T15:39:43.711Z,20.40
2019-05-18T15:42:06.060Z,20.30
2019-05-18T15:44:27.254Z,20.10
2019-05-18T15:46:48.472Z,19.90
2019-05-18T15:49:09.813Z,19.70
2019-05-18T15:51:31.214Z,19.20
2019-05-18T15:53:52.837Z,19.10
2019-05-18T15:56:14.046Z,19.10
2019-05-18T15:58:35.245Z,19.00
2019-05-18T16:00:56.463Z,18.90
2019-05-18T16:03:17.773Z,18.80
2019-05-18T16:05:38.972Z,18.70
2019-05-18T16:08:00.317Z,18.40
2019-05-18T16:10:21.600Z,18.50
2019-05-18T16:12:42.827Z,18.30
2019-05-18T16:15:05.913Z,18.20
2019-05-18T16:17:38.864Z,18.30
2019-05-18T16:19:50.253Z,18.40
2019-05-18T16:22:11.471Z,18.20
2019-05-18T16:24:32.766Z,18.10
2019-05-18T16:26:53.987Z,18.00
2019-05-18T16:29:15.200Z,17.90
2019-05-18T16:31:36.475Z,17.70
2019-05-18T16:33:59.053Z,17.90
2019-05-18T16:36:20.259Z,18.00
2019-05-18T16:38:41.474Z,18.10
2019-05-18T16:41:03.077Z,18.10
2019-05-18T16:43:24.293Z,17.90
2019-05-18T16:45:45.493Z,18.00
2019-05-18T16:48:06.704Z,17.90
2019-05-18T16:50:27.894Z,17.80
2019-05-18T16:52:49.101Z,17.60
2019-05-18T16:55:11.029Z,17.20
2019-05-18T16:57:32.360Z,17.20
2019-05-18T16:59:53.540Z,17.30
2019-05-18T17:02:30.290Z,17.40
2019-05-18T17:04:37.854Z,17.40
2019-05-18T17:06:59.049Z,17.30
2019-05-18T17:09:20.253Z,17.10
2019-05-18T17:11:41.457Z,17.20
2019-05-18T17:14:04.909Z,16.90
2019-05-18T17:16:26.250Z,16.80
2019-05-18T17:18:47.531Z,16.90
2019-05-18T17:21:08.927Z,17.00
2019-05-18T17:23:30.234Z,16.80
2019-05-18T17:25:51.528Z,16.70
2019-05-18T17:28:12.748Z,16.80
2019-05-18T17:30:34.181Z,16.80
2019-05-18T17:32:55.397Z,16.70
2019-05-18T17:35:16.781Z,16.50
2019-05-18T17:37:38.019Z,16.50
2019-05-18T17:39:59.201Z,16.40
2019-05-18T17:42:20.704Z,16.40
2019-05-18T17:44:41.904Z,16.40
2019-05-18T17:47:03.202Z,16.40
2019-05-18T17:49:26.847Z,16.50
2019-05-18T17:51:47.614Z,16.50
2019-05-18T17:54:08.804Z,16.40
2019-05-18T17:56:30.101Z,16.30
2019-05-18T17:58:51.635Z,16.20
2019-05-18T18:01:12.929Z,16.10
2019-05-18T18:03:34.148Z,16.20
2019-05-18T18:05:55.348Z,16.10
2019-05-18T18:08:16.570Z,16.10
2019-05-18T18:10:37.757Z,16.10
2019-05-18T18:12:59.063Z,16.10
2019-05-18T18:15:20.573Z,16.10
2019-05-18T18:17:41.763Z,16.00
2019-05-18T18:20:04.369Z,16.00
2019-05-18T18:22:26.773Z,16.00
2019-05-18T18:24:48.080Z,15.90
2019-05-18T18:27:24.039Z,15.90
2019-05-18T18:29:32.393Z,15.90
2019-05-18T18:31:53.605Z,15.90
2019-05-18T18:34:14.809Z,15.90
2019-05-18T18:36:35.984Z,15.80
2019-05-18T18:38:57.189Z,15.80
2019-05-18T18:41:18.493Z,15.80
2019-05-18T18:43:40.027Z,15.70
2019-05-18T18:46:01.694Z,15.70
2019-05-18T18:48:26.258Z,15.60
2019-05-18T18:50:46.238Z,15.70
2019-05-18T18:53:08.826Z,15.60
2019-05-18T18:55:30.047Z,15.60
2019-05-18T18:57:51.266Z,15.50
2019-05-18T19:00:14.696Z,15.20
2019-05-18T19:02:35.896Z,15.40
2019-05-18T19:04:57.477Z,15.40
2019-05-18T19:07:18.675Z,15.30
2019-05-18T19:09:40.239Z,15.20
2019-05-18T19:12:01.454Z,15.20
2019-05-18T19:14:22.670Z,15.20
2019-05-18T19:16:44.390Z,15.20
2019-05-18T19:19:05.787Z,15.20
2019-05-18T19:21:27.183Z,15.20
2019-05-18T19:23:48.545Z,15.10
2019-05-18T19:26:09.852Z,15.00
2019-05-18T19:28:31.050Z,15.00
2019-05-18T19:30:52.261Z,14.90
2019-05-18T19:33:13.457Z,15.00
2019-05-18T19:35:34.666Z,14.90
2019-05-18T19:37:55.992Z,15.00
2019-05-18T19:40:17.383Z,15.00
2019-05-18T19:42:38.610Z,15.00
2019-05-18T19:44:59.829Z,15.00
2019-05-18T19:47:21.021Z,15.00
2019-05-18T19:49:42.235Z,14.90
2019-05-18T19:52:03.438Z,14.80
2019-05-18T19:54:24.637Z,14.80
2019-05-18T19:56:45.893Z,14.90
2019-05-18T19:59:07.140Z,14.90
2019-05-18T20:01:28.349Z,14.90
2019-05-18T20:03:49.641Z,14.90
2019-05-18T20:06:10.854Z,14.90
2019-05-18T20:08:32.033Z,14.90
2019-05-18T20:10:53.357Z,14.90
2019-05-18T20:13:14.547Z,14.90
2019-05-18T20:15:35.777Z,14.90
2019-05-18T20:17:57.017Z,14.90
2019-05-18T20:20:18.696Z,14.80
2019-05-18T20:22:40.000Z,14.80
2019-05-18T20:25:01.218Z,14.80
2019-05-18T20:27:22.529Z,14.70
2019-05-18T20:29:43.769Z,14.80
2019-05-18T20:32:05.028Z,14.70
2019-05-18T20:34:26.298Z,14.70
2019-05-18T20:36:47.613Z,14.70
2019-05-18T20:39:08.913Z,14.60
2019-05-18T20:41:30.230Z,14.70
2019-05-18T20:43:51.435Z,14.70
2019-05-18T20:46:13.658Z,14.70
2019-05-18T20:48:34.867Z,14.70
2019-05-18T20:50:56.184Z,14.70
2019-05-18T20:53:17.401Z,14.70
2019-05-18T20:55:38.617Z,14.60
2019-05-18T20:57:59.825Z,14.60
2019-05-18T21:00:21.030Z,14.70
2019-05-18T21:02:42.237Z,14.60
2019-05-18T21:05:04.973Z,14.70
2019-05-18T21:07:27.260Z,14.70
2019-05-18T21:09:48.470Z,14.60
2019-05-18T21:12:09.739Z,14.70
2019-05-18T21:14:30.943Z,14.70
2019-05-18T21:16:53.160Z,14.70
2019-05-18T21:19:14.366Z,14.60
2019-05-18T21:21:35.798Z,14.60
2019-05-18T21:23:57.107Z,14.50
2019-05-18T21:26:18.351Z,14.50
2019-05-18T21:28:53.444Z,14.50
2019-05-18T21:31:02.702Z,14.50
2019-05-18T21:33:23.896Z,14.40
2019-05-18T21:35:45.111Z,14.40
2019-05-18T21:38:06.333Z,14.40
2019-05-18T21:40:27.554Z,14.40
2019-05-18T21:42:48.773Z,14.40
2019-05-18T21:45:10.282Z,14.40
2019-05-18T21:47:31.502Z,14.40
2019-05-18T21:49:52.717Z,14.40
2019-05-18T21:52:13.931Z,14.40
2019-05-18T21:54:35.131Z,14.40
2019-05-18T21:56:56.349Z,14.30
2019-05-18T21:59:17.548Z,14.40
2019-05-18T22:01:38.882Z,14.40
2019-05-18T22:04:00.207Z,14.40
2019-05-18T22:06:21.422Z,14.30
2019-05-18T22:08:42.629Z,14.30
2019-05-18T22:11:03.832Z,14.30
2019-05-18T22:13:25.153Z,14.30
2019-05-18T22:15:46.338Z,14.30
2019-05-18T22:18:07.661Z,14.30
2019-05-18T22:20:29.280Z,14.30
2019-05-18T22:22:50.606Z,14.10
2019-05-18T22:25:11.800Z,14.10
2019-05-18T22:27:33.038Z,14.10
2019-05-18T22:29:54.261Z,14.10
2019-05-18T22:32:15.469Z,14.20
2019-05-18T22:34:36.662Z,14.10
2019-05-18T22:36:57.873Z,14.10
2019-05-18T22:39:19.067Z,14.10
2019-05-18T22:41:40.270Z,14.10
2019-05-18T22:44:02.208Z,14.10
2019-05-18T22:46:23.504Z,14.00
2019-05-18T22:48:45.335Z,14.00
2019-05-18T22:51:06.562Z,14.00
2019-05-18T22:53:27.873Z,14.00
2019-05-18T22:55:49.082Z,14.00
2019-05-18T22:58:10.311Z,14.00
2019-05-18T23:00:31.787Z,14.00
2019-05-18T23:02:53.016Z,13.90
2019-05-18T23:05:14.420Z,13.90
2019-05-18T23:07:35.644Z,13.90
2019-05-18T23:09:56.944Z,13.80
2019-05-18T23:12:18.448Z,13.70
2019-05-18T23:14:39.674Z,13.70
2019-05-18T23:17:00.885Z,13.80
2019-05-18T23:19:22.090Z,13.70
2019-05-18T23:21:43.344Z,13.70
2019-05-18T23:24:04.849Z,13.70
2019-05-18T23:26:26.117Z,13.60
2019-05-18T23:28:47.324Z,13.60
2019-05-18T23:31:09.068Z,13.60
2019-05-18T23:33:30.267Z,13.50
2019-05-18T23:35:51.461Z,13.60
2019-05-18T23:38:14.589Z,13.60
2019-05-18T23:40:35.780Z,13.60
2019-05-18T23:42:56.991Z,13.60
2019-05-18T23:45:18.306Z,13.60
2019-05-18T23:47:39.587Z,13.60
2019-05-18T23:50:00.829Z,13.60
2019-05-18T23:52:22.294Z,13.70
2019-05-18T23:54:43.514Z,13.70
2019-05-18T23:57:04.717Z,13.60
2019-05-18T23:59:25.938Z,13.50
